sensor_id;sensor_type;location;lat;lon;timestamp;P1;durP1;ratioP1;P2;durP2;ratioP2
32535;SDS011;18974;50.838;4.636;2023-03-01T00:01:07;14.70;;;9.15;;
32535;SDS011;18974;50.838;4.636;2023-03-01T00:03:34;16.25;;;8.80;;
32535;SDS011;18974;50.838;4.636;2023-03-01T00:06:01;16.45;;;9.82;;
32535;SDS011;18974;50.838;4.636;2023-03-01T00:08:27;18.15;;;9.63;;
32535;SDS011;18974;50.838;4.636;2023-03-01T00:11:17;18.80;;;9.77;;
32535;SDS011;18974;50.838;4.636;2023-03-01T00:13:45;16.77;;;9.02;;
32535;SDS011;18974;50.838;4.636;2023-03-01T00:16:15;18.75;;;9.57;;
32535;SDS011;18974;50.838;4.636;2023-03-01T00:18:46;18.27;;;9.52;;
32535;SDS011;18974;50.838;4.636;2023-03-01T00:21:12;24.83;;;9.70;;
32535;SDS011;18974;50.838;4.636;2023-03-01T00:23:39;19.52;;;9.93;;
32535;SDS011;18974;50.838;4.636;2023-03-01T00:26:06;17.58;;;9.25;;
32535;SDS011;18974;50.838;4.636;2023-03-01T00:28:33;17.08;;;9.48;;
32535;SDS011;18974;50.838;4.636;2023-03-01T00:31:09;19.85;;;9.52;;
32535;SDS011;18974;50.838;4.636;2023-03-01T00:33:36;18.50;;;9.80;;
32535;SDS011;18974;50.838;4.636;2023-03-01T00:36:02;16.58;;;9.20;;
32535;SDS011;18974;50.838;4.636;2023-03-01T00:38:28;16.38;;;9.50;;
32535;SDS011;18974;50.838;4.636;2023-03-01T00:40:55;18.45;;;8.70;;
32535;SDS011;18974;50.838;4.636;2023-03-01T00:43:21;18.27;;;9.77;;
32535;SDS011;18974;50.838;4.636;2023-03-01T00:45:46;17.20;;;9.68;;
32535;SDS011;18974;50.838;4.636;2023-03-01T00:48:12;18.02;;;9.50;;
32535;SDS011;18974;50.838;4.636;2023-03-01T00:50:38;16.60;;;10.07;;
32535;SDS011;18974;50.838;4.636;2023-03-01T00:53:03;15.95;;;8.93;;
32535;SDS011;18974;50.838;4.636;2023-03-01T00:55:30;15.07;;;9.50;;
32535;SDS011;18974;50.838;4.636;2023-03-01T00:57:56;15.73;;;9.13;;
32535;SDS011;18974;50.838;4.636;2023-03-01T01:00:21;17.65;;;9.05;;
32535;SDS011;18974;50.838;4.636;2023-03-01T01:02:47;15.52;;;9.43;;
32535;SDS011;18974;50.838;4.636;2023-03-01T01:05:13;17.23;;;9.38;;
32535;SDS011;18974;50.838;4.636;2023-03-01T01:07:39;18.75;;;9.20;;
32535;SDS011;18974;50.838;4.636;2023-03-01T01:10:05;16.60;;;9.43;;
32535;SDS011;18974;50.838;4.636;2023-03-01T01:12:31;16.05;;;8.52;;
32535;SDS011;18974;50.838;4.636;2023-03-01T01:14:57;16.08;;;9.07;;
32535;SDS011;18974;50.838;4.636;2023-03-01T01:17:23;14.63;;;9.07;;
32535;SDS011;18974;50.838;4.636;2023-03-01T01:19:49;14.70;;;9.45;;
32535;SDS011;18974;50.838;4.636;2023-03-01T01:22:14;15.07;;;8.82;;
32535;SDS011;18974;50.838;4.636;2023-03-01T01:24:43;15.88;;;8.65;;
32535;SDS011;18974;50.838;4.636;2023-03-01T01:27:08;17.95;;;9.90;;
32535;SDS011;18974;50.838;4.636;2023-03-01T01:29:34;17.42;;;9.43;;
32535;SDS011;18974;50.838;4.636;2023-03-01T01:31:59;21.10;;;10.27;;
32535;SDS011;18974;50.838;4.636;2023-03-01T01:34:25;18.52;;;9.48;;
32535;SDS011;18974;50.838;4.636;2023-03-01T01:36:51;16.33;;;8.73;;
32535;SDS011;18974;50.838;4.636;2023-03-01T01:39:21;19.83;;;9.15;;
32535;SDS011;18974;50.838;4.636;2023-03-01T01:41:47;15.60;;;9.23;;
32535;SDS011;18974;50.838;4.636;2023-03-01T01:46:43;16.88;;;9.38;;
32535;SDS011;18974;50.838;4.636;2023-03-01T01:49:16;18.05;;;9.30;;
32535;SDS011;18974;50.838;4.636;2023-03-01T01:54:41;17.55;;;8.88;;
32535;SDS011;18974;50.838;4.636;2023-03-01T01:57:15;16.27;;;9.27;;
32535;SDS011;18974;50.838;4.636;2023-03-01T01:59:45;18.27;;;9.88;;
32535;SDS011;18974;50.838;4.636;2023-03-01T02:02:16;16.38;;;9.45;;
32535;SDS011;18974;50.838;4.636;2023-03-01T02:04:42;14.52;;;8.75;;
32535;SDS011;18974;50.838;4.636;2023-03-01T02:07:11;19.40;;;10.05;;
32535;SDS011;18974;50.838;4.636;2023-03-01T02:09:42;20.35;;;9.75;;
32535;SDS011;18974;50.838;4.636;2023-03-01T02:12:11;17.85;;;9.23;;
32535;SDS011;18974;50.838;4.636;2023-03-01T02:14:38;16.30;;;9.18;;
32535;SDS011;18974;50.838;4.636;2023-03-01T02:17:04;16.60;;;9.00;;
32535;SDS011;18974;50.838;4.636;2023-03-01T02:22:19;22.42;;;9.63;;
32535;SDS011;18974;50.838;4.636;2023-03-01T02:28:01;13.80;;;9.10;;
32535;SDS011;18974;50.838;4.636;2023-03-01T02:30:33;16.35;;;9.68;;
32535;SDS011;18974;50.838;4.636;2023-03-01T02:32:59;17.95;;;9.48;;
32535;SDS011;18974;50.838;4.636;2023-03-01T02:35:33;13.95;;;9.13;;
32535;SDS011;18974;50.838;4.636;2023-03-01T02:38:02;18.02;;;8.95;;
32535;SDS011;18974;50.838;4.636;2023-03-01T02:40:31;18.23;;;9.95;;
32535;SDS011;18974;50.838;4.636;2023-03-01T02:42:59;18.08;;;9.65;;
32535;SDS011;18974;50.838;4.636;2023-03-01T02:45:25;16.30;;;9.38;;
32535;SDS011;18974;50.838;4.636;2023-03-01T02:47:55;22.60;;;10.00;;
32535;SDS011;18974;50.838;4.636;2023-03-01T02:50:35;18.50;;;9.63;;
32535;SDS011;18974;50.838;4.636;2023-03-01T02:53:22;19.15;;;9.63;;
32535;SDS011;18974;50.838;4.636;2023-03-01T02:56:00;16.75;;;8.95;;
32535;SDS011;18974;50.838;4.636;2023-03-01T02:58:26;15.95;;;9.02;;
32535;SDS011;18974;50.838;4.636;2023-03-01T03:00:52;17.20;;;9.93;;
32535;SDS011;18974;50.838;4.636;2023-03-01T03:03:19;14.63;;;8.13;;
32535;SDS011;18974;50.838;4.636;2023-03-01T03:05:45;19.58;;;9.45;;
32535;SDS011;18974;50.838;4.636;2023-03-01T03:08:12;21.13;;;9.63;;
32535;SDS011;18974;50.838;4.636;2023-03-01T03:10:39;17.38;;;9.88;;
32535;SDS011;18974;50.838;4.636;2023-03-01T03:13:11;18.48;;;9.18;;
32535;SDS011;18974;50.838;4.636;2023-03-01T03:15:39;15.77;;;8.57;;
32535;SDS011;18974;50.838;4.636;2023-03-01T03:18:07;19.83;;;9.65;;
32535;SDS011;18974;50.838;4.636;2023-03-01T03:20:35;18.58;;;9.55;;
32535;SDS011;18974;50.838;4.636;2023-03-01T03:23:02;16.70;;;9.20;;
32535;SDS011;18974;50.838;4.636;2023-03-01T03:25:28;19.13;;;9.65;;
32535;SDS011;18974;50.838;4.636;2023-03-01T03:27:55;14.63;;;9.07;;
32535;SDS011;18974;50.838;4.636;2023-03-01T03:30:29;18.30;;;9.63;;
32535;SDS011;18974;50.838;4.636;2023-03-01T03:32:56;17.40;;;9.35;;
32535;SDS011;18974;50.838;4.636;2023-03-01T03:35:24;19.17;;;9.45;;
32535;SDS011;18974;50.838;4.636;2023-03-01T03:37:53;14.70;;;8.93;;
32535;SDS011;18974;50.838;4.636;2023-03-01T03:40:32;14.98;;;7.93;;
32535;SDS011;18974;50.838;4.636;2023-03-01T03:43:00;15.68;;;9.27;;
32535;SDS011;18974;50.838;4.636;2023-03-01T03:45:27;17.27;;;9.30;;
32535;SDS011;18974;50.838;4.636;2023-03-01T03:47:53;17.52;;;9.80;;
32535;SDS011;18974;50.838;4.636;2023-03-01T03:50:18;19.10;;;10.10;;
32535;SDS011;18974;50.838;4.636;2023-03-01T03:52:44;15.93;;;8.55;;
32535;SDS011;18974;50.838;4.636;2023-03-01T03:55:11;14.50;;;9.80;;
32535;SDS011;18974;50.838;4.636;2023-03-01T03:57:38;16.45;;;9.18;;
32535;SDS011;18974;50.838;4.636;2023-03-01T04:00:05;14.48;;;8.75;;
32535;SDS011;18974;50.838;4.636;2023-03-01T04:02:41;17.77;;;9.00;;
32535;SDS011;18974;50.838;4.636;2023-03-01T04:05:08;11.98;;;8.27;;
32535;SDS011;18974;50.838;4.636;2023-03-01T04:07:35;19.27;;;9.90;;
32535;SDS011;18974;50.838;4.636;2023-03-01T04:10:03;21.27;;;9.90;;
32535;SDS011;18974;50.838;4.636;2023-03-01T04:12:29;18.73;;;9.98;;
32535;SDS011;18974;50.838;4.636;2023-03-01T04:14:55;17.85;;;8.80;;
32535;SDS011;18974;50.838;4.636;2023-03-01T04:17:21;16.15;;;9.32;;
32535;SDS011;18974;50.838;4.636;2023-03-01T04:19:47;18.63;;;9.95;;
32535;SDS011;18974;50.838;4.636;2023-03-01T04:22:14;19.77;;;8.98;;
32535;SDS011;18974;50.838;4.636;2023-03-01T04:24:42;16.67;;;9.57;;
32535;SDS011;18974;50.838;4.636;2023-03-01T04:27:08;15.82;;;8.90;;
32535;SDS011;18974;50.838;4.636;2023-03-01T04:29:34;22.35;;;9.55;;
32535;SDS011;18974;50.838;4.636;2023-03-01T04:32:00;14.13;;;8.63;;
32535;SDS011;18974;50.838;4.636;2023-03-01T04:34:26;17.88;;;9.95;;
32535;SDS011;18974;50.838;4.636;2023-03-01T04:36:52;19.02;;;9.77;;
32535;SDS011;18974;50.838;4.636;2023-03-01T04:39:17;17.45;;;9.15;;
32535;SDS011;18974;50.838;4.636;2023-03-01T04:41:43;18.33;;;9.75;;
32535;SDS011;18974;50.838;4.636;2023-03-01T04:44:09;16.67;;;9.68;;
32535;SDS011;18974;50.838;4.636;2023-03-01T04:46:35;17.98;;;9.40;;
32535;SDS011;18974;50.838;4.636;2023-03-01T04:49:02;21.23;;;9.18;;
32535;SDS011;18974;50.838;4.636;2023-03-01T04:51:28;18.65;;;9.48;;
32535;SDS011;18974;50.838;4.636;2023-03-01T04:53:54;21.17;;;10.18;;
32535;SDS011;18974;50.838;4.636;2023-03-01T04:56:20;16.45;;;8.57;;
32535;SDS011;18974;50.838;4.636;2023-03-01T04:58:47;17.27;;;9.68;;
32535;SDS011;18974;50.838;4.636;2023-03-01T05:01:15;19.13;;;9.80;;
32535;SDS011;18974;50.838;4.636;2023-03-01T05:03:45;20.23;;;9.98;;
32535;SDS011;18974;50.838;4.636;2023-03-01T05:06:15;19.00;;;9.40;;
32535;SDS011;18974;50.838;4.636;2023-03-01T05:08:44;17.70;;;9.32;;
32535;SDS011;18974;50.838;4.636;2023-03-01T05:11:10;17.63;;;9.88;;
32535;SDS011;18974;50.838;4.636;2023-03-01T05:13:37;15.20;;;9.10;;
32535;SDS011;18974;50.838;4.636;2023-03-01T05:16:04;18.98;;;10.15;;
32535;SDS011;18974;50.838;4.636;2023-03-01T05:18:32;15.70;;;9.05;;
32535;SDS011;18974;50.838;4.636;2023-03-01T05:21:02;17.52;;;10.07;;
32535;SDS011;18974;50.838;4.636;2023-03-01T05:23:29;17.10;;;9.57;;
32535;SDS011;18974;50.838;4.636;2023-03-01T05:25:59;14.18;;;9.07;;
32535;SDS011;18974;50.838;4.636;2023-03-01T05:28:26;16.80;;;9.05;;
32535;SDS011;18974;50.838;4.636;2023-03-01T05:30:53;15.77;;;9.60;;
32535;SDS011;18974;50.838;4.636;2023-03-01T05:33:19;17.60;;;9.73;;
32535;SDS011;18974;50.838;4.636;2023-03-01T05:35:47;19.42;;;10.02;;
32535;SDS011;18974;50.838;4.636;2023-03-01T05:38:14;16.23;;;9.68;;
32535;SDS011;18974;50.838;4.636;2023-03-01T05:40:41;15.50;;;8.98;;
32535;SDS011;18974;50.838;4.636;2023-03-01T05:43:08;17.40;;;9.13;;
32535;SDS011;18974;50.838;4.636;2023-03-01T05:45:35;22.92;;;10.27;;
32535;SDS011;18974;50.838;4.636;2023-03-01T05:48:02;17.00;;;9.02;;
32535;SDS011;18974;50.838;4.636;2023-03-01T05:50:29;17.95;;;9.85;;
32535;SDS011;18974;50.838;4.636;2023-03-01T05:55:24;16.27;;;8.93;;
32535;SDS011;18974;50.838;4.636;2023-03-01T05:57:50;20.63;;;10.55;;
32535;SDS011;18974;50.838;4.636;2023-03-01T06:00:16;20.52;;;10.60;;
32535;SDS011;18974;50.838;4.636;2023-03-01T06:02:44;15.68;;;9.60;;
32535;SDS011;18974;50.838;4.636;2023-03-01T06:05:10;18.73;;;10.43;;
32535;SDS011;18974;50.838;4.636;2023-03-01T06:07:37;18.10;;;9.77;;
32535;SDS011;18974;50.838;4.636;2023-03-01T06:10:03;20.25;;;10.32;;
32535;SDS011;18974;50.838;4.636;2023-03-01T06:12:31;16.80;;;9.77;;
32535;SDS011;18974;50.838;4.636;2023-03-01T06:14:58;18.33;;;9.73;;
32535;SDS011;18974;50.838;4.636;2023-03-01T06:17:24;19.17;;;9.98;;
32535;SDS011;18974;50.838;4.636;2023-03-01T06:19:49;18.27;;;9.68;;
32535;SDS011;18974;50.838;4.636;2023-03-01T06:22:15;20.02;;;10.00;;
32535;SDS011;18974;50.838;4.636;2023-03-01T06:24:41;21.85;;;9.82;;
32535;SDS011;18974;50.838;4.636;2023-03-01T06:27:06;18.23;;;10.07;;
32535;SDS011;18974;50.838;4.636;2023-03-01T06:29:32;15.23;;;10.07;;
32535;SDS011;18974;50.838;4.636;2023-03-01T06:31:58;16.52;;;9.43;;
32535;SDS011;18974;50.838;4.636;2023-03-01T06:34:23;17.17;;;9.35;;
32535;SDS011;18974;50.838;4.636;2023-03-01T06:36:49;17.05;;;9.82;;
32535;SDS011;18974;50.838;4.636;2023-03-01T06:39:14;16.27;;;10.10;;
32535;SDS011;18974;50.838;4.636;2023-03-01T06:41:41;19.92;;;10.27;;
32535;SDS011;18974;50.838;4.636;2023-03-01T06:44:07;17.83;;;9.63;;
32535;SDS011;18974;50.838;4.636;2023-03-01T06:46:32;16.77;;;9.85;;
32535;SDS011;18974;50.838;4.636;2023-03-01T06:48:58;19.55;;;9.35;;
32535;SDS011;18974;50.838;4.636;2023-03-01T06:51:24;18.88;;;9.90;;
32535;SDS011;18974;50.838;4.636;2023-03-01T06:53:50;16.77;;;9.77;;
32535;SDS011;18974;50.838;4.636;2023-03-01T06:56:16;18.08;;;9.40;;
32535;SDS011;18974;50.838;4.636;2023-03-01T06:58:41;18.30;;;9.90;;
32535;SDS011;18974;50.838;4.636;2023-03-01T07:01:07;21.13;;;10.02;;
32535;SDS011;18974;50.838;4.636;2023-03-01T07:03:33;22.20;;;10.10;;
32535;SDS011;18974;50.838;4.636;2023-03-01T07:05:59;20.50;;;10.68;;
32535;SDS011;18974;50.838;4.636;2023-03-01T07:08:25;19.60;;;10.77;;
32535;SDS011;18974;50.838;4.636;2023-03-01T07:10:57;22.08;;;9.57;;
32535;SDS011;18974;50.838;4.636;2023-03-01T07:13:23;22.40;;;10.88;;
32535;SDS011;18974;50.838;4.636;2023-03-01T07:15:49;19.75;;;9.77;;
32535;SDS011;18974;50.838;4.636;2023-03-01T07:18:15;18.52;;;10.25;;
32535;SDS011;18974;50.838;4.636;2023-03-01T07:20:40;20.70;;;10.85;;
32535;SDS011;18974;50.838;4.636;2023-03-01T07:23:06;20.15;;;10.25;;
32535;SDS011;18974;50.838;4.636;2023-03-01T07:25:32;16.98;;;9.75;;
32535;SDS011;18974;50.838;4.636;2023-03-01T07:27:58;18.65;;;10.35;;
32535;SDS011;18974;50.838;4.636;2023-03-01T07:30:24;17.83;;;10.75;;
32535;SDS011;18974;50.838;4.636;2023-03-01T07:32:52;28.42;;;11.35;;
32535;SDS011;18974;50.838;4.636;2023-03-01T07:35:18;22.05;;;10.40;;
32535;SDS011;18974;50.838;4.636;2023-03-01T07:37:43;17.83;;;9.85;;
32535;SDS011;18974;50.838;4.636;2023-03-01T07:40:09;21.48;;;9.77;;
32535;SDS011;18974;50.838;4.636;2023-03-01T07:42:36;23.40;;;11.48;;
32535;SDS011;18974;50.838;4.636;2023-03-01T07:45:02;16.77;;;9.95;;
32535;SDS011;18974;50.838;4.636;2023-03-01T07:47:28;18.50;;;10.48;;
32535;SDS011;18974;50.838;4.636;2023-03-01T07:49:54;25.90;;;10.80;;
32535;SDS011;18974;50.838;4.636;2023-03-01T07:52:20;20.10;;;9.68;;
32535;SDS011;18974;50.838;4.636;2023-03-01T07:54:45;19.77;;;10.45;;
32535;SDS011;18974;50.838;4.636;2023-03-01T07:57:11;16.77;;;9.93;;
32535;SDS011;18974;50.838;4.636;2023-03-01T07:59:37;20.42;;;10.95;;
32535;SDS011;18974;50.838;4.636;2023-03-01T08:02:02;18.55;;;10.25;;
32535;SDS011;18974;50.838;4.636;2023-03-01T08:04:28;18.88;;;9.95;;
32535;SDS011;18974;50.838;4.636;2023-03-01T08:06:54;19.85;;;10.32;;
32535;SDS011;18974;50.838;4.636;2023-03-01T08:09:20;20.85;;;10.73;;
32535;SDS011;18974;50.838;4.636;2023-03-01T08:11:46;20.05;;;10.27;;
32535;SDS011;18974;50.838;4.636;2023-03-01T08:14:12;19.35;;;11.05;;
32535;SDS011;18974;50.838;4.636;2023-03-01T08:16:37;16.65;;;10.02;;
32535;SDS011;18974;50.838;4.636;2023-03-01T08:19:07;22.85;;;10.27;;
32535;SDS011;18974;50.838;4.636;2023-03-01T08:21:34;22.80;;;10.73;;
32535;SDS011;18974;50.838;4.636;2023-03-01T08:24:00;20.08;;;10.10;;
32535;SDS011;18974;50.838;4.636;2023-03-01T08:26:27;20.35;;;10.30;;
32535;SDS011;18974;50.838;4.636;2023-03-01T08:28:53;18.92;;;10.55;;
32535;SDS011;18974;50.838;4.636;2023-03-01T08:31:26;18.65;;;10.45;;
32535;SDS011;18974;50.838;4.636;2023-03-01T08:33:54;20.00;;;10.20;;
32535;SDS011;18974;50.838;4.636;2023-03-01T08:36:24;18.27;;;9.82;;
32535;SDS011;18974;50.838;4.636;2023-03-01T08:38:57;20.65;;;10.95;;
32535;SDS011;18974;50.838;4.636;2023-03-01T08:41:23;17.92;;;9.68;;
32535;SDS011;18974;50.838;4.636;2023-03-01T08:43:49;20.85;;;10.48;;
32535;SDS011;18974;50.838;4.636;2023-03-01T08:46:15;17.85;;;10.07;;
32535;SDS011;18974;50.838;4.636;2023-03-01T08:48:41;18.20;;;10.18;;
32535;SDS011;18974;50.838;4.636;2023-03-01T08:51:13;17.25;;;9.32;;
32535;SDS011;18974;50.838;4.636;2023-03-01T08:53:41;21.88;;;10.70;;
32535;SDS011;18974;50.838;4.636;2023-03-01T08:56:08;21.92;;;11.02;;
32535;SDS011;18974;50.838;4.636;2023-03-01T08:58:34;16.13;;;10.40;;
32535;SDS011;18974;50.838;4.636;2023-03-01T09:01:04;16.55;;;10.57;;
32535;SDS011;18974;50.838;4.636;2023-03-01T09:03:32;19.13;;;10.85;;
32535;SDS011;18974;50.838;4.636;2023-03-01T09:06:01;18.80;;;10.20;;
32535;SDS011;18974;50.838;4.636;2023-03-01T09:08:28;18.50;;;10.10;;
32535;SDS011;18974;50.838;4.636;2023-03-01T09:10:54;20.45;;;10.98;;
32535;SDS011;18974;50.838;4.636;2023-03-01T09:13:19;16.08;;;9.60;;
32535;SDS011;18974;50.838;4.636;2023-03-01T09:15:45;19.55;;;10.70;;
32535;SDS011;18974;50.838;4.636;2023-03-01T09:18:10;20.33;;;10.13;;
32535;SDS011;18974;50.838;4.636;2023-03-01T09:20:36;21.98;;;10.60;;
32535;SDS011;18974;50.838;4.636;2023-03-01T09:23:02;17.20;;;10.23;;
32535;SDS011;18974;50.838;4.636;2023-03-01T09:25:28;20.02;;;10.63;;
32535;SDS011;18974;50.838;4.636;2023-03-01T09:27:54;18.42;;;9.73;;
32535;SDS011;18974;50.838;4.636;2023-03-01T09:30:20;18.75;;;10.63;;
32535;SDS011;18974;50.838;4.636;2023-03-01T09:32:46;17.85;;;10.43;;
32535;SDS011;18974;50.838;4.636;2023-03-01T09:35:11;26.10;;;10.45;;
32535;SDS011;18974;50.838;4.636;2023-03-01T09:37:38;16.50;;;10.20;;
32535;SDS011;18974;50.838;4.636;2023-03-01T09:40:09;21.30;;;11.13;;
32535;SDS011;18974;50.838;4.636;2023-03-01T09:42:45;20.30;;;10.48;;
32535;SDS011;18974;50.838;4.636;2023-03-01T09:45:37;18.98;;;10.57;;
32535;SDS011;18974;50.838;4.636;2023-03-01T09:48:07;23.02;;;11.38;;
32535;SDS011;18974;50.838;4.636;2023-03-01T09:50:41;23.92;;;11.38;;
32535;SDS011;18974;50.838;4.636;2023-03-01T09:53:20;17.50;;;10.40;;
32535;SDS011;18974;50.838;4.636;2023-03-01T10:04:20;18.70;;;10.23;;
32535;SDS011;18974;50.838;4.636;2023-03-01T10:09:37;19.95;;;10.52;;
32535;SDS011;18974;50.838;4.636;2023-03-01T10:12:08;18.55;;;10.32;;
32535;SDS011;18974;50.838;4.636;2023-03-01T10:14:38;21.10;;;10.93;;
32535;SDS011;18974;50.838;4.636;2023-03-01T10:17:25;16.88;;;10.25;;
32535;SDS011;18974;50.838;4.636;2023-03-01T10:21:03;17.85;;;10.93;;
32535;SDS011;18974;50.838;4.636;2023-03-01T10:23:08;16.85;;;10.23;;
32535;SDS011;18974;50.838;4.636;2023-03-01T10:28:20;19.42;;;11.35;;
32535;SDS011;18974;50.838;4.636;2023-03-01T10:31:15;20.60;;;10.80;;
32535;SDS011;18974;50.838;4.636;2023-03-01T10:33:47;23.98;;;10.80;;
32535;SDS011;18974;50.838;4.636;2023-03-01T10:36:16;21.13;;;11.05;;
32535;SDS011;18974;50.838;4.636;2023-03-01T10:38:52;19.48;;;10.60;;
32535;SDS011;18974;50.838;4.636;2023-03-01T10:41:23;18.77;;;10.20;;
32535;SDS011;18974;50.838;4.636;2023-03-01T10:43:51;16.27;;;10.60;;
32535;SDS011;18974;50.838;4.636;2023-03-01T10:46:29;17.25;;;10.18;;
32535;SDS011;18974;50.838;4.636;2023-03-01T10:51:50;22.17;;;10.57;;
32535;SDS011;18974;50.838;4.636;2023-03-01T10:54:19;16.77;;;10.57;;
32535;SDS011;18974;50.838;4.636;2023-03-01T10:56:51;18.40;;;9.63;;
32535;SDS011;18974;50.838;4.636;2023-03-01T10:59:28;22.15;;;10.63;;
32535;SDS011;18974;50.838;4.636;2023-03-01T11:04:58;21.08;;;10.38;;
32535;SDS011;18974;50.838;4.636;2023-03-01T11:07:24;19.42;;;10.32;;
32535;SDS011;18974;50.838;4.636;2023-03-01T11:09:50;17.58;;;10.15;;
32535;SDS011;18974;50.838;4.636;2023-03-01T11:12:16;16.45;;;10.27;;
32535;SDS011;18974;50.838;4.636;2023-03-01T11:14:46;17.38;;;9.48;;
32535;SDS011;18974;50.838;4.636;2023-03-01T11:20:06;16.85;;;10.10;;
32535;SDS011;18974;50.838;4.636;2023-03-01T11:22:47;17.30;;;9.88;;
32535;SDS011;18974;50.838;4.636;2023-03-01T11:25:15;19.80;;;10.13;;
32535;SDS011;18974;50.838;4.636;2023-03-01T11:27:44;15.52;;;9.60;;
32535;SDS011;18974;50.838;4.636;2023-03-01T11:35:28;15.93;;;9.23;;
32535;SDS011;18974;50.838;4.636;2023-03-01T11:40:33;17.27;;;10.40;;
32535;SDS011;18974;50.838;4.636;2023-03-01T11:51:12;16.55;;;9.35;;
32535;SDS011;18974;50.838;4.636;2023-03-01T11:53:50;23.30;;;9.13;;
32535;SDS011;18974;50.838;4.636;2023-03-01T12:09:49;16.05;;;10.05;;
32535;SDS011;18974;50.838;4.636;2023-03-01T12:35:22;15.93;;;8.65;;
32535;SDS011;18974;50.838;4.636;2023-03-01T12:38:05;20.35;;;9.60;;
32535;SDS011;18974;50.838;4.636;2023-03-01T12:40:43;18.88;;;9.32;;
32535;SDS011;18974;50.838;4.636;2023-03-01T12:46:53;20.58;;;9.02;;
32535;SDS011;18974;50.838;4.636;2023-03-01T12:49:14;17.45;;;9.20;;
32535;SDS011;18974;50.838;4.636;2023-03-01T12:52:32;14.68;;;8.98;;
32535;SDS011;18974;50.838;4.636;2023-03-01T12:54:51;19.40;;;9.32;;
32535;SDS011;18974;50.838;4.636;2023-03-01T12:57:40;16.90;;;9.20;;
32535;SDS011;18974;50.838;4.636;2023-03-01T13:00:32;14.27;;;8.90;;
32535;SDS011;18974;50.838;4.636;2023-03-01T13:11:02;15.48;;;9.07;;
32535;SDS011;18974;50.838;4.636;2023-03-01T13:13:30;14.35;;;8.93;;
32535;SDS011;18974;50.838;4.636;2023-03-01T13:15:57;14.57;;;9.18;;
32535;SDS011;18974;50.838;4.636;2023-03-01T13:21:08;15.75;;;9.23;;
32535;SDS011;18974;50.838;4.636;2023-03-01T13:23:35;18.73;;;9.13;;
32535;SDS011;18974;50.838;4.636;2023-03-01T13:26:11;14.15;;;9.20;;
32535;SDS011;18974;50.838;4.636;2023-03-01T13:44:50;17.30;;;10.13;;
32535;SDS011;18974;50.838;4.636;2023-03-01T13:55:03;17.05;;;8.25;;
32535;SDS011;18974;50.838;4.636;2023-03-01T13:57:38;15.25;;;8.45;;
32535;SDS011;18974;50.838;4.636;2023-03-01T14:00:04;15.32;;;8.35;;
32535;SDS011;18974;50.838;4.636;2023-03-01T14:02:31;16.73;;;8.23;;
32535;SDS011;18974;50.838;4.636;2023-03-01T14:05:00;16.75;;;8.52;;
32535;SDS011;18974;50.838;4.636;2023-03-01T14:07:26;20.95;;;9.65;;
32535;SDS011;18974;50.838;4.636;2023-03-01T14:10:02;15.73;;;9.07;;
32535;SDS011;18974;50.838;4.636;2023-03-01T14:12:43;8.75;;;6.13;;
32535;SDS011;18974;50.838;4.636;2023-03-01T14:15:34;17.27;;;9.80;;
32535;SDS011;18974;50.838;4.636;2023-03-01T14:21:17;16.08;;;8.98;;
32535;SDS011;18974;50.838;4.636;2023-03-01T14:23:43;15.10;;;8.95;;
32535;SDS011;18974;50.838;4.636;2023-03-01T14:26:09;16.73;;;9.20;;
32535;SDS011;18974;50.838;4.636;2023-03-01T14:28:37;16.15;;;8.55;;
32535;SDS011;18974;50.838;4.636;2023-03-01T14:31:35;17.17;;;9.63;;
32535;SDS011;18974;50.838;4.636;2023-03-01T14:34:03;14.48;;;8.57;;
32535;SDS011;18974;50.838;4.636;2023-03-01T14:36:31;16.02;;;9.52;;
32535;SDS011;18974;50.838;4.636;2023-03-01T14:38:58;16.70;;;8.82;;
32535;SDS011;18974;50.838;4.636;2023-03-01T14:41:29;17.17;;;8.70;;
32535;SDS011;18974;50.838;4.636;2023-03-01T14:44:03;13.38;;;7.70;;
32535;SDS011;18974;50.838;4.636;2023-03-01T14:46:39;17.00;;;8.25;;
32535;SDS011;18974;50.838;4.636;2023-03-01T14:49:10;13.90;;;8.52;;
32535;SDS011;18974;50.838;4.636;2023-03-01T14:51:42;15.57;;;8.85;;
32535;SDS011;18974;50.838;4.636;2023-03-01T14:54:37;14.52;;;7.68;;
32535;SDS011;18974;50.838;4.636;2023-03-01T14:57:12;11.23;;;7.22;;
32535;SDS011;18974;50.838;4.636;2023-03-01T14:59:40;16.75;;;8.07;;
32535;SDS011;18974;50.838;4.636;2023-03-01T15:02:13;17.08;;;8.02;;
32535;SDS011;18974;50.838;4.636;2023-03-01T15:04:51;13.07;;;7.15;;
32535;SDS011;18974;50.838;4.636;2023-03-01T15:07:21;13.25;;;7.90;;
32535;SDS011;18974;50.838;4.636;2023-03-01T15:09:51;11.60;;;7.32;;
32535;SDS011;18974;50.838;4.636;2023-03-01T15:12:36;11.93;;;7.15;;
32535;SDS011;18974;50.838;4.636;2023-03-01T15:20:43;9.85;;;6.85;;
32535;SDS011;18974;50.838;4.636;2023-03-01T15:23:47;11.85;;;6.78;;
32535;SDS011;18974;50.838;4.636;2023-03-01T15:26:04;14.73;;;7.30;;
32535;SDS011;18974;50.838;4.636;2023-03-01T15:28:30;16.20;;;7.32;;
32535;SDS011;18974;50.838;4.636;2023-03-01T15:33:47;14.30;;;6.90;;
32535;SDS011;18974;50.838;4.636;2023-03-01T15:38:57;11.98;;;7.45;;
32535;SDS011;18974;50.838;4.636;2023-03-01T15:41:38;19.73;;;7.10;;
32535;SDS011;18974;50.838;4.636;2023-03-01T15:44:28;13.35;;;7.28;;
32535;SDS011;18974;50.838;4.636;2023-03-01T15:46:55;10.55;;;6.75;;
32535;SDS011;18974;50.838;4.636;2023-03-01T15:49:41;10.68;;;6.68;;
32535;SDS011;18974;50.838;4.636;2023-03-01T15:52:12;11.10;;;6.93;;
32535;SDS011;18974;50.838;4.636;2023-03-01T15:54:54;11.10;;;5.88;;
32535;SDS011;18974;50.838;4.636;2023-03-01T15:57:25;14.27;;;7.75;;
32535;SDS011;18974;50.838;4.636;2023-03-01T15:59:51;15.27;;;7.15;;
32535;SDS011;18974;50.838;4.636;2023-03-01T16:02:16;14.18;;;7.88;;
32535;SDS011;18974;50.838;4.636;2023-03-01T16:04:43;14.35;;;7.88;;
32535;SDS011;18974;50.838;4.636;2023-03-01T16:07:09;14.18;;;7.45;;
32535;SDS011;18974;50.838;4.636;2023-03-01T16:09:35;14.52;;;7.30;;
32535;SDS011;18974;50.838;4.636;2023-03-01T16:12:01;14.68;;;7.45;;
32535;SDS011;18974;50.838;4.636;2023-03-01T16:14:26;12.90;;;6.70;;
32535;SDS011;18974;50.838;4.636;2023-03-01T16:16:52;15.15;;;6.35;;
32535;SDS011;18974;50.838;4.636;2023-03-01T16:19:18;12.57;;;6.68;;
32535;SDS011;18974;50.838;4.636;2023-03-01T16:21:43;15.40;;;7.45;;
32535;SDS011;18974;50.838;4.636;2023-03-01T16:24:11;13.98;;;6.95;;
32535;SDS011;18974;50.838;4.636;2023-03-01T16:26:38;14.57;;;7.05;;
32535;SDS011;18974;50.838;4.636;2023-03-01T16:29:03;12.73;;;7.00;;
32535;SDS011;18974;50.838;4.636;2023-03-01T16:31:29;14.95;;;7.00;;
32535;SDS011;18974;50.838;4.636;2023-03-01T16:33:56;15.35;;;7.32;;
32535;SDS011;18974;50.838;4.636;2023-03-01T16:36:23;13.63;;;7.07;;
32535;SDS011;18974;50.838;4.636;2023-03-01T16:38:52;13.43;;;6.25;;
32535;SDS011;18974;50.838;4.636;2023-03-01T16:41:19;13.05;;;7.15;;
32535;SDS011;18974;50.838;4.636;2023-03-01T16:43:47;14.35;;;7.05;;
32535;SDS011;18974;50.838;4.636;2023-03-01T16:46:18;11.68;;;6.90;;
32535;SDS011;18974;50.838;4.636;2023-03-01T16:48:46;13.82;;;7.00;;
32535;SDS011;18974;50.838;4.636;2023-03-01T16:51:12;10.48;;;6.70;;
32535;SDS011;18974;50.838;4.636;2023-03-01T16:53:38;16.15;;;7.78;;
32535;SDS011;18974;50.838;4.636;2023-03-01T16:56:05;13.25;;;6.63;;
32535;SDS011;18974;50.838;4.636;2023-03-01T16:58:33;13.32;;;7.80;;
32535;SDS011;18974;50.838;4.636;2023-03-01T17:01:03;12.10;;;7.30;;
32535;SDS011;18974;50.838;4.636;2023-03-01T17:03:31;14.63;;;7.68;;